createdAt,value
2022-09-22T00:02:41.318Z,0.87
2022-09-22T00:05:30.754Z,0.80
2022-09-22T00:08:19.263Z,0.77
2022-09-22T00:11:08.511Z,0.85
2022-09-22T00:13:59.904Z,1.10
2022-09-22T00:16:48.342Z,0.60
2022-09-22T00:19:36.172Z,1.20
2022-09-22T00:22:24.380Z,0.70
2022-09-22T00:25:13.131Z,0.90
2022-09-22T00:28:00.211Z,0.70
2022-09-22T00:30:47.464Z,0.70
2022-09-22T00:33:36.997Z,0.63
2022-09-22T00:36:25.712Z,0.67
2022-09-22T00:39:13.009Z,0.70
2022-09-22T00:42:01.376Z,0.60
2022-09-22T00:44:48.427Z,0.55
2022-09-22T00:47:37.426Z,0.60
2022-09-22T00:50:26.457Z,0.52
2022-09-22T00:53:15.470Z,0.65
2022-09-22T00:56:05.423Z,0.80
2022-09-22T00:58:54.763Z,0.65
2022-09-22T01:01:42.141Z,0.70
2022-09-22T01:04:29.309Z,0.50
2022-09-22T01:07:16.424Z,0.50
2022-09-22T01:10:06.145Z,0.60
2022-09-22T01:12:57.230Z,0.77
2022-09-22T01:15:48.982Z,0.77
2022-09-22T01:18:43.062Z,0.65
2022-09-22T01:21:35.741Z,0.70
2022-09-22T01:24:43.582Z,0.80
2022-09-22T01:27:49.526Z,0.40
2022-09-22T01:30:40.717Z,0.82
2022-09-22T01:33:39.127Z,0.73
2022-09-22T01:36:28.072Z,0.60
2022-09-22T01:39:17.727Z,0.68
2022-09-22T01:42:08.665Z,0.70
2022-09-22T01:44:57.220Z,0.70
2022-09-22T01:47:48.362Z,0.52
2022-09-22T01:50:38.221Z,0.60
2022-09-22T01:53:28.565Z,0.80
2022-09-22T01:56:18.213Z,0.60
2022-09-22T01:59:07.914Z,0.53
2022-09-22T02:01:58.101Z,0.60
2022-09-22T02:04:48.473Z,0.70
2022-09-22T02:07:40.955Z,0.60
2022-09-22T02:10:34.111Z,0.77
2022-09-22T02:13:23.430Z,0.90
2022-09-22T02:16:11.772Z,0.50
2022-09-22T02:19:13.148Z,0.60
2022-09-22T02:22:01.900Z,0.55
2022-09-22T02:24:48.961Z,0.50
2022-09-22T02:27:36.917Z,0.43
2022-09-22T02:30:24.380Z,0.90
2022-09-22T02:33:11.627Z,0.80
2022-09-22T02:36:02.503Z,0.60
2022-09-22T02:38:55.101Z,0.85
2022-09-22T02:41:47.760Z,0.43
2022-09-22T02:44:37.341Z,0.60
2022-09-22T02:47:27.209Z,0.80
2022-09-22T02:50:15.687Z,0.45
2022-09-22T02:53:04.307Z,0.80
2022-09-22T02:55:52.778Z,0.35
2022-09-22T02:58:40.108Z,0.75
2022-09-22T03:01:27.765Z,0.43
2022-09-22T03:04:14.896Z,0.63
2022-09-22T03:07:01.970Z,0.50
2022-09-22T03:09:49.195Z,0.73
2022-09-22T03:13:02.347Z,0.50
2022-09-22T03:15:49.813Z,0.50
2022-09-22T03:18:37.101Z,0.40
2022-09-22T03:21:24.069Z,0.60
2022-09-22T03:24:11.307Z,0.60
2022-09-22T03:27:00.479Z,0.53
2022-09-22T03:29:49.366Z,0.90
2022-09-22T03:32:36.279Z,0.60
2022-09-22T03:35:23.290Z,0.50
2022-09-22T03:38:13.584Z,0.50
2022-09-22T03:41:01.368Z,0.40
2022-09-22T03:43:48.026Z,1.08
2022-09-22T03:46:36.578Z,0.60
2022-09-22T03:49:23.596Z,0.50
2022-09-22T03:52:10.469Z,0.70
2022-09-22T03:54:57.786Z,0.60
2022-09-22T03:57:44.976Z,0.70
2022-09-22T04:00:32.314Z,0.52
2022-09-22T04:03:20.754Z,0.67
2022-09-22T04:06:08.692Z,0.60
2022-09-22T04:08:57.722Z,0.47
2022-09-22T04:11:45.213Z,0.60
2022-09-22T04:14:32.815Z,0.80
2022-09-22T04:17:20.410Z,0.55
2022-09-22T04:20:09.638Z,0.50
2022-09-22T04:22:56.678Z,0.47
2022-09-22T04:25:46.196Z,0.63
2022-09-22T04:28:33.659Z,0.40
2022-09-22T04:31:23.925Z,0.70
2022-09-22T04:34:10.783Z,0.50
2022-09-22T04:36:59.278Z,0.70
2022-09-22T04:39:46.515Z,0.80
2022-09-22T04:42:33.785Z,0.50
2022-09-22T04:45:20.980Z,0.80
2022-09-22T04:48:08.041Z,0.80
2022-09-22T04:50:55.110Z,0.50
2022-09-22T04:53:43.694Z,0.50
2022-09-22T04:56:30.582Z,0.60
2022-09-22T04:59:20.637Z,0.93
2022-09-22T05:02:10.317Z,0.50
2022-09-22T05:04:57.420Z,0.60
2022-09-22T05:07:45.825Z,1.00
2022-09-22T05:10:36.790Z,1.00
2022-09-22T05:13:24.012Z,0.70
2022-09-22T05:16:10.869Z,0.57
2022-09-22T05:18:58.111Z,0.63
2022-09-22T05:21:45.496Z,0.70
2022-09-22T05:24:33.029Z,0.75
2022-09-22T05:27:21.653Z,0.77
2022-09-22T05:30:09.301Z,0.93
2022-09-22T05:32:56.592Z,0.55
2022-09-22T05:35:43.364Z,0.80
2022-09-22T05:38:30.989Z,0.55
2022-09-22T05:41:18.329Z,0.65
2022-09-22T05:44:06.603Z,0.68
2022-09-22T05:46:53.667Z,0.60
2022-09-22T05:49:40.747Z,0.60
2022-09-22T05:52:27.819Z,0.50
2022-09-22T05:55:15.054Z,1.10
2022-09-22T05:58:02.651Z,1.00
2022-09-22T06:00:51.242Z,0.70
2022-09-22T06:03:38.059Z,0.50
2022-09-22T06:06:29.001Z,0.75
2022-09-22T06:09:16.466Z,0.63
2022-09-22T06:12:04.103Z,0.77
2022-09-22T06:14:51.162Z,0.40
2022-09-22T06:17:39.537Z,0.50
2022-09-22T06:20:26.516Z,0.60
2022-09-22T06:23:15.445Z,0.45
2022-09-22T06:26:02.936Z,0.55
2022-09-22T06:28:50.435Z,0.40
2022-09-22T06:31:37.670Z,0.63
2022-09-22T06:34:30.048Z,0.57
2022-09-22T06:37:17.097Z,1.05
2022-09-22T06:40:04.395Z,0.60
2022-09-22T06:42:51.827Z,0.60
2022-09-22T06:45:39.137Z,0.70
2022-09-22T06:48:31.419Z,0.60
2022-09-22T06:51:19.965Z,0.60
2022-09-22T06:54:07.975Z,0.50
2022-09-22T06:56:55.718Z,0.65
2022-09-22T06:59:43.013Z,0.50
2022-09-22T07:02:32.264Z,0.90
2022-09-22T07:05:21.106Z,0.60
2022-09-22T07:08:09.787Z,0.60
2022-09-22T07:10:57.403Z,0.95
2022-09-22T07:13:45.686Z,0.63
2022-09-22T07:16:33.089Z,0.60
2022-09-22T07:19:20.598Z,0.55
2022-09-22T07:22:08.197Z,0.52
2022-09-22T07:24:57.939Z,0.90
2022-09-22T07:27:45.295Z,0.70
2022-09-22T07:30:32.820Z,0.52
2022-09-22T07:33:19.775Z,0.68
2022-09-22T07:36:08.896Z,0.57
2022-09-22T07:38:57.570Z,0.65
2022-09-22T07:41:46.914Z,0.68
2022-09-22T07:44:51.440Z,0.55
2022-09-22T07:47:55.900Z,1.25
2022-09-22T07:50:43.038Z,0.40
2022-09-22T07:53:29.844Z,1.00
2022-09-22T07:56:17.945Z,0.70
2022-09-22T07:59:10.832Z,0.63
2022-09-22T08:02:01.114Z,0.50
2022-09-22T08:04:48.434Z,0.57
2022-09-22T08:07:37.339Z,0.60
2022-09-22T08:10:24.531Z,0.60
2022-09-22T08:13:11.540Z,0.50
2022-09-22T08:16:00.531Z,0.43
2022-09-22T08:18:51.622Z,0.50
2022-09-22T08:21:48.010Z,1.10
2022-09-22T08:24:36.245Z,1.02
2022-09-22T08:27:23.421Z,0.80
2022-09-22T08:30:12.140Z,0.90
2022-09-22T08:33:01.731Z,0.90
2022-09-22T08:35:53.350Z,0.63
2022-09-22T08:38:40.906Z,1.15
2022-09-22T08:41:38.342Z,1.25
2022-09-22T08:44:26.708Z,1.02
2022-09-22T08:47:17.288Z,0.90
2022-09-22T08:50:26.553Z,1.05
2022-09-22T08:53:16.126Z,0.70
2022-09-22T08:56:19.672Z,1.50
2022-09-22T08:59:12.646Z,0.82
2022-09-22T09:02:09.251Z,0.90
2022-09-22T09:05:05.667Z,1.50
2022-09-22T09:08:00.242Z,0.65
2022-09-22T09:10:51.760Z,1.30
2022-09-22T09:13:44.022Z,0.98
2022-09-22T09:16:37.966Z,0.60
2022-09-22T09:19:30.031Z,0.70
2022-09-22T09:22:24.942Z,0.68
2022-09-22T09:25:27.310Z,1.10
2022-09-22T09:28:18.353Z,1.10
2022-09-22T09:31:10.177Z,0.88
2022-09-22T09:34:00.303Z,0.93
2022-09-22T09:36:49.217Z,0.70
2022-09-22T09:39:37.443Z,1.40
2022-09-22T09:42:27.458Z,1.48
2022-09-22T09:45:32.669Z,0.93
2022-09-22T09:48:39.686Z,0.55
2022-09-22T09:51:31.999Z,1.58
2022-09-22T09:54:34.120Z,1.20
2022-09-22T09:57:28.004Z,1.30
2022-09-22T10:00:43.937Z,1.00
2022-09-22T10:03:35.705Z,1.33
2022-09-22T10:06:26.400Z,0.70
2022-09-22T10:09:28.244Z,0.57
2022-09-22T10:12:26.516Z,1.10
2022-09-22T10:15:30.388Z,1.20
2022-09-22T10:18:30.550Z,1.35
2022-09-22T10:21:21.381Z,0.70
2022-09-22T10:24:38.431Z,1.20
2022-09-22T10:27:35.743Z,0.75
2022-09-22T10:30:30.414Z,1.10
2022-09-22T10:33:23.400Z,1.00
2022-09-22T10:36:12.572Z,0.88
2022-09-22T10:39:00.266Z,0.63
2022-09-22T10:41:49.175Z,0.52
2022-09-22T10:47:53.915Z,0.43
2022-09-22T10:50:59.284Z,0.50
2022-09-22T10:54:06.385Z,0.70
2022-09-22T10:56:55.085Z,0.40
2022-09-22T10:59:49.800Z,0.43
2022-09-22T11:02:52.407Z,0.60
2022-09-22T11:06:01.126Z,0.60
2022-09-22T11:09:20.116Z,0.33
2022-09-22T11:12:20.314Z,0.40
2022-09-22T11:15:17.652Z,0.32
2022-09-22T11:18:17.906Z,0.43
2022-09-22T11:21:11.837Z,0.45
2022-09-22T11:24:17.323Z,0.30
2022-09-22T11:27:05.245Z,0.30
2022-09-22T11:30:00.555Z,0.30
2022-09-22T11:32:56.327Z,0.38
2022-09-22T11:35:52.088Z,0.20
2022-09-22T11:38:50.362Z,0.20
2022-09-22T11:41:42.620Z,0.40
2022-09-22T11:44:32.885Z,0.25
2022-09-22T11:47:40.075Z,0.27
2022-09-22T11:50:54.391Z,0.32
2022-09-22T11:53:54.916Z,0.30
2022-09-22T11:56:44.173Z,0.30
2022-09-22T11:59:42.128Z,0.23
2022-09-22T12:02:32.516Z,0.38
2022-09-22T12:05:21.544Z,0.30
2022-09-22T12:08:22.269Z,0.43
2022-09-22T12:11:13.762Z,0.30
2022-09-22T12:14:03.949Z,0.25
2022-09-22T12:17:04.993Z,0.30
2022-09-22T12:19:57.293Z,0.50
2022-09-22T12:23:02.850Z,0.30
2022-09-22T12:25:55.304Z,0.28
2022-09-22T12:28:45.701Z,0.30
2022-09-22T12:31:40.086Z,0.50
2022-09-22T12:34:33.708Z,0.30
2022-09-22T12:37:28.619Z,0.30
2022-09-22T12:40:29.487Z,0.22
2022-09-22T12:43:23.637Z,0.20
2022-09-22T12:46:21.426Z,0.40
2022-09-22T12:49:10.602Z,0.30
2022-09-22T12:51:57.729Z,0.22
2022-09-22T12:54:46.823Z,0.22
2022-09-22T12:57:45.562Z,0.25
2022-09-22T13:00:36.706Z,0.40
2022-09-22T13:03:39.058Z,0.35
2022-09-22T13:06:44.870Z,0.45
2022-09-22T13:09:33.524Z,0.40
2022-09-22T13:12:31.020Z,0.20
2022-09-22T13:15:19.788Z,0.20
2022-09-22T13:18:27.210Z,0.20
2022-09-22T13:21:21.775Z,0.30
2022-09-22T13:24:18.511Z,0.20
2022-09-22T13:27:08.383Z,0.60
2022-09-22T13:29:59.531Z,0.20
2022-09-22T13:32:50.639Z,0.38
2022-09-22T13:35:39.331Z,0.30
2022-09-22T13:38:26.924Z,0.38
2022-09-22T13:41:15.006Z,0.45
2022-09-22T13:44:10.684Z,0.30
2022-09-22T13:46:58.511Z,0.70
2022-09-22T13:49:47.730Z,0.60
2022-09-22T13:52:36.908Z,0.80
2022-09-22T13:55:28.720Z,1.02
2022-09-22T13:58:18.917Z,1.05
2022-09-22T14:01:17.312Z,1.30
2022-09-22T14:04:04.663Z,1.17
2022-09-22T14:06:53.884Z,2.40
2022-09-22T14:09:41.701Z,1.93
2022-09-22T14:12:30.124Z,1.50
2022-09-22T14:15:36.234Z,1.98
2022-09-22T14:18:27.063Z,1.77
2022-09-22T14:21:14.758Z,1.63
2022-09-22T14:24:02.601Z,1.58
2022-09-22T14:26:51.211Z,1.88
2022-09-22T14:29:40.223Z,3.10
2022-09-22T14:32:34.408Z,2.45
2022-09-22T14:35:25.861Z,1.63
2022-09-22T14:38:24.891Z,1.53
2022-09-22T14:41:22.423Z,2.20
2022-09-22T14:44:28.177Z,2.50
2022-09-22T14:47:26.872Z,2.22
2022-09-22T14:50:21.776Z,2.13
2022-09-22T14:53:17.866Z,2.15
2022-09-22T14:56:08.369Z,1.80
2022-09-22T14:58:58.954Z,1.65
2022-09-22T15:02:07.400Z,2.67
2022-09-22T15:04:54.699Z,2.45
2022-09-22T15:07:48.082Z,1.92
2022-09-22T15:10:36.848Z,2.03
2022-09-22T15:13:33.098Z,1.80
2022-09-22T15:16:43.358Z,1.42
2022-09-22T15:19:37.222Z,1.35
2022-09-22T15:22:24.517Z,1.13
2022-09-22T15:25:16.294Z,1.27
2022-09-22T15:28:07.639Z,1.13
2022-09-22T15:30:55.277Z,1.50
2022-09-22T15:33:42.194Z,2.20
2022-09-22T15:36:32.752Z,1.42
2022-09-22T15:39:22.516Z,1.30
2022-09-22T15:42:12.224Z,1.42
2022-09-22T15:45:00.986Z,1.27
2022-09-22T15:47:52.557Z,1.73
2022-09-22T15:50:40.875Z,1.13
2022-09-22T15:53:28.502Z,1.30
2022-09-22T15:56:19.092Z,1.52
2022-09-22T15:59:07.144Z,1.58
2022-09-22T16:02:50.849Z,1.02
2022-09-22T16:06:03.781Z,1.35
2022-09-22T16:08:56.392Z,1.95
2022-09-22T16:11:44.643Z,1.92
2022-09-22T16:14:31.734Z,2.47
2022-09-22T16:17:18.966Z,3.57
2022-09-22T16:20:07.136Z,3.80
2022-09-22T16:22:54.023Z,5.65
2022-09-22T16:25:42.708Z,7.38
2022-09-22T16:28:30.176Z,8.47
2022-09-22T16:31:19.088Z,10.25
2022-09-22T16:34:06.896Z,10.73
2022-09-22T16:36:54.165Z,11.13
2022-09-22T16:39:42.602Z,11.37
2022-09-22T16:42:31.093Z,11.88
2022-09-22T16:45:38.242Z,10.45
2022-09-22T16:48:25.963Z,12.35
2022-09-22T16:51:15.705Z,13.35
2022-09-22T16:54:03.085Z,12.25
2022-09-22T16:56:51.072Z,11.27
2022-09-22T16:59:39.360Z,12.05
2022-09-22T17:02:26.867Z,9.25
2022-09-22T17:05:14.868Z,6.13
2022-09-22T17:08:06.039Z,3.95
2022-09-22T17:10:55.034Z,3.22
2022-09-22T17:13:43.406Z,1.98
2022-09-22T17:16:32.585Z,1.93
2022-09-22T17:19:20.537Z,1.80
2022-09-22T17:22:07.954Z,1.50
2022-09-22T17:24:55.893Z,1.63
2022-09-22T17:27:43.079Z,1.52
2022-09-22T17:30:30.530Z,0.98
2022-09-22T17:33:19.006Z,1.20
2022-09-22T17:36:07.261Z,1.10
2022-09-22T17:38:55.154Z,1.20
2022-09-22T17:41:47.089Z,1.05
2022-09-22T17:44:35.648Z,0.90
2022-09-22T17:47:40.171Z,0.93
2022-09-22T17:50:46.324Z,0.82
2022-09-22T17:53:50.938Z,0.75
2022-09-22T17:56:38.012Z,1.30
2022-09-22T17:59:25.211Z,0.80
2022-09-22T18:02:13.910Z,0.80
2022-09-22T18:05:01.539Z,0.80
2022-09-22T18:07:53.663Z,1.10
2022-09-22T18:10:40.825Z,0.75
2022-09-22T18:13:28.237Z,0.80
2022-09-22T18:16:20.825Z,0.93
2022-09-22T18:19:08.669Z,0.83
2022-09-22T18:21:56.180Z,0.82
2022-09-22T18:24:45.239Z,1.10
2022-09-22T18:27:32.541Z,0.70
2022-09-22T18:30:20.316Z,0.65
2022-09-22T18:33:07.642Z,0.55
2022-09-22T18:35:55.163Z,0.80
2022-09-22T18:38:42.553Z,0.75
2022-09-22T18:41:32.125Z,0.80
2022-09-22T18:44:19.536Z,0.83
2022-09-22T18:47:07.520Z,0.98
2022-09-22T18:49:54.698Z,0.75
2022-09-22T18:52:44.509Z,1.08
2022-09-22T18:55:32.420Z,0.65
2022-09-22T18:58:20.791Z,0.73
2022-09-22T19:01:10.507Z,0.90
2022-09-22T19:03:58.329Z,0.93
2022-09-22T19:07:03.071Z,1.02
2022-09-22T19:09:50.438Z,1.10
2022-09-22T19:12:39.605Z,1.05
2022-09-22T19:15:31.570Z,1.35
2022-09-22T19:18:22.494Z,1.20
2022-09-22T19:21:14.238Z,1.42
2022-09-22T19:24:05.269Z,1.42
2022-09-22T19:26:55.369Z,1.25
2022-09-22T19:29:42.491Z,1.20
2022-09-22T19:32:30.622Z,1.20
2022-09-22T19:35:17.681Z,0.90
2022-09-22T19:38:05.300Z,1.15
2022-09-22T19:40:56.352Z,1.38
2022-09-22T19:43:43.924Z,1.10
2022-09-22T19:46:36.902Z,2.45
2022-09-22T19:49:26.700Z,1.73
2022-09-22T19:52:52.765Z,1.77
2022-09-22T19:55:39.799Z,1.20
2022-09-22T19:58:27.216Z,1.13
2022-09-22T20:01:27.480Z,1.10
2022-09-22T20:04:15.843Z,1.15
2022-09-22T20:07:05.595Z,1.20
2022-09-22T20:09:55.943Z,1.33
2022-09-22T20:12:45.480Z,1.38
2022-09-22T20:15:32.944Z,1.25
2022-09-22T20:18:22.114Z,0.95
2022-09-22T20:21:12.467Z,1.42
2022-09-22T20:24:02.217Z,1.05
2022-09-22T20:26:49.953Z,1.10
2022-09-22T20:29:37.366Z,1.10
2022-09-22T20:32:25.133Z,1.13
2022-09-22T20:35:13.374Z,0.82
2022-09-22T20:38:01.842Z,0.75
2022-09-22T20:40:50.674Z,1.13
2022-09-22T20:43:38.191Z,1.20
2022-09-22T20:46:25.499Z,1.60
2022-09-22T20:49:16.785Z,1.10
2022-09-22T20:52:05.006Z,1.55
2022-09-22T20:54:52.425Z,1.23
2022-09-22T20:57:41.229Z,1.02
2022-09-22T21:00:28.342Z,1.10
2022-09-22T21:03:15.626Z,1.10
2022-09-22T21:06:03.593Z,1.48
2022-09-22T21:09:08.113Z,0.98
2022-09-22T21:11:58.283Z,1.08
2022-09-22T21:14:46.575Z,0.80
2022-09-22T21:17:35.406Z,1.10
2022-09-22T21:20:22.634Z,1.70
2022-09-22T21:23:09.681Z,1.10
2022-09-22T21:25:57.427Z,1.13
2022-09-22T21:28:45.559Z,1.10
2022-09-22T21:31:34.958Z,1.30
2022-09-22T21:34:22.021Z,1.20
2022-09-22T21:37:09.743Z,1.33
2022-09-22T21:39:56.862Z,1.00
2022-09-22T21:42:45.088Z,1.25
2022-09-22T21:45:35.245Z,1.38
2022-09-22T21:48:23.910Z,1.10
2022-09-22T21:51:12.608Z,1.23
2022-09-22T21:54:00.067Z,1.38
2022-09-22T21:56:48.364Z,1.20
2022-09-22T21:59:35.671Z,0.98
2022-09-22T22:02:22.808Z,1.30
2022-09-22T22:05:12.664Z,0.95
2022-09-22T22:08:00.058Z,1.20
2022-09-22T22:10:50.076Z,1.13
2022-09-22T22:13:38.094Z,1.00
2022-09-22T22:16:28.916Z,1.42
2022-09-22T22:19:20.048Z,1.20
2022-09-22T22:22:08.938Z,1.65
2022-09-22T22:24:56.091Z,0.93
2022-09-22T22:27:45.526Z,1.40
2022-09-22T22:30:32.700Z,1.10
2022-09-22T22:33:21.912Z,1.27
2022-09-22T22:36:09.796Z,0.90
2022-09-22T22:38:58.425Z,1.25
2022-09-22T22:41:45.602Z,1.02
2022-09-22T22:44:32.586Z,1.02
2022-09-22T22:47:21.687Z,1.00
2022-09-22T22:50:09.956Z,1.05
2022-09-22T22:52:56.935Z,1.50
2022-09-22T22:55:58.421Z,0.80
2022-09-22T22:58:46.776Z,0.88
2022-09-22T23:01:33.895Z,0.90
2022-09-22T23:04:21.195Z,0.82
2022-09-22T23:07:10.850Z,0.85
2022-09-22T23:10:06.383Z,0.98
2022-09-22T23:12:56.717Z,1.17
2022-09-22T23:15:44.704Z,0.87
2022-09-22T23:18:35.191Z,0.82
2022-09-22T23:21:23.091Z,0.80
2022-09-22T23:24:10.892Z,0.83
2022-09-22T23:26:58.578Z,1.00
2022-09-22T23:29:47.562Z,1.02
2022-09-22T23:32:34.623Z,0.73
2022-09-22T23:35:21.829Z,0.77
2022-09-22T23:38:11.322Z,1.00
2022-09-22T23:41:02.043Z,1.30
2022-09-22T23:43:52.045Z,0.57
2022-09-22T23:46:40.465Z,0.73
2022-09-22T23:49:27.802Z,0.70
2022-09-22T23:52:15.612Z,0.90
2022-09-22T23:55:06.250Z,1.30
2022-09-22T23:57:53.610Z,0.82
